sensor_id;sensor_type;location;lat;lon;timestamp;temperature;humidity
69747;DHT22;57018;50.278;19.134;2022-11-20T00:03:37;-4.80;92.80
69747;DHT22;57018;50.278;19.134;2022-11-20T00:06:05;-4.90;92.30
69747;DHT22;57018;50.278;19.134;2022-11-20T00:08:32;-5.10;93.20
69747;DHT22;57018;50.278;19.134;2022-11-20T00:11:09;-5.00;93.90
69747;DHT22;57018;50.278;19.134;2022-11-20T00:13:35;-4.90;93.60
69747;DHT22;57018;50.278;19.134;2022-11-20T00:16:05;-5.00;93.60
69747;DHT22;57018;50.278;19.134;2022-11-20T00:18:36;-4.90;93.40
69747;DHT22;57018;50.278;19.134;2022-11-20T00:23:31;-4.90;92.80
69747;DHT22;57018;50.278;19.134;2022-11-20T00:26:02;-4.90;93.10
69747;DHT22;57018;50.278;19.134;2022-11-20T00:28:29;-4.90;93.40
69747;DHT22;57018;50.278;19.134;2022-11-20T00:31:07;-4.90;92.60
69747;DHT22;57018;50.278;19.134;2022-11-20T00:33:31;-4.90;92.60
69747;DHT22;57018;50.278;19.134;2022-11-20T00:36:10;-4.90;92.80
69747;DHT22;57018;50.278;19.134;2022-11-20T00:38:33;-4.90;92.50
69747;DHT22;57018;50.278;19.134;2022-11-20T00:41:01;-4.90;92.40
69747;DHT22;57018;50.278;19.134;2022-11-20T00:43:29;-5.00;92.50
69747;DHT22;57018;50.278;19.134;2022-11-20T00:46:02;-4.90;91.60
69747;DHT22;57018;50.278;19.134;2022-11-20T00:48:29;-5.00;91.60
69747;DHT22;57018;50.278;19.134;2022-11-20T00:50:55;-5.00;91.50
69747;DHT22;57018;50.278;19.134;2022-11-20T00:53:22;-5.10;91.60
69747;DHT22;57018;50.278;19.134;2022-11-20T00:55:59;-5.00;91.90
69747;DHT22;57018;50.278;19.134;2022-11-20T00:58:22;-5.10;91.60
69747;DHT22;57018;50.278;19.134;2022-11-20T01:00:49;-5.00;91.80
69747;DHT22;57018;50.278;19.134;2022-11-20T01:03:18;-5.10;91.80
69747;DHT22;57018;50.278;19.134;2022-11-20T01:05:44;-5.10;91.90
69747;DHT22;57018;50.278;19.134;2022-11-20T01:08:10;-5.10;91.40
69747;DHT22;57018;50.278;19.134;2022-11-20T01:10:36;-5.10;91.80
69747;DHT22;57018;50.278;19.134;2022-11-20T01:13:02;-5.10;91.40
69747;DHT22;57018;50.278;19.134;2022-11-20T01:15:47;-5.10;91.20
69747;DHT22;57018;50.278;19.134;2022-11-20T01:18:13;-5.10;90.70
69747;DHT22;57018;50.278;19.134;2022-11-20T01:20:39;-5.20;90.90
69747;DHT22;57018;50.278;19.134;2022-11-20T01:23:05;-5.20;91.10
69747;DHT22;57018;50.278;19.134;2022-11-20T01:25:31;-5.20;90.90
69747;DHT22;57018;50.278;19.134;2022-11-20T01:27:57;-5.30;90.70
69747;DHT22;57018;50.278;19.134;2022-11-20T01:30:23;-5.30;90.90
69747;DHT22;57018;50.278;19.134;2022-11-20T01:32:49;-5.30;91.10
69747;DHT22;57018;50.278;19.134;2022-11-20T01:35:15;-5.30;91.60
69747;DHT22;57018;50.278;19.134;2022-11-20T01:37:41;-5.20;91.00
69747;DHT22;57018;50.278;19.134;2022-11-20T01:40:08;-5.30;91.30
69747;DHT22;57018;50.278;19.134;2022-11-20T01:42:35;-5.40;91.70
69747;DHT22;57018;50.278;19.134;2022-11-20T01:45:42;-5.40;92.10
69747;DHT22;57018;50.278;19.134;2022-11-20T01:48:08;-5.40;91.70
69747;DHT22;57018;50.278;19.134;2022-11-20T01:50:35;-5.30;90.90
69747;DHT22;57018;50.278;19.134;2022-11-20T01:53:08;-5.30;91.00
69747;DHT22;57018;50.278;19.134;2022-11-20T01:55:41;-5.40;90.70
69747;DHT22;57018;50.278;19.134;2022-11-20T01:58:04;-5.40;91.00
69747;DHT22;57018;50.278;19.134;2022-11-20T02:00:30;-5.30;90.50
69747;DHT22;57018;50.278;19.134;2022-11-20T02:02:59;-5.30;90.00
69747;DHT22;57018;50.278;19.134;2022-11-20T02:05:32;-5.40;90.10
69747;DHT22;57018;50.278;19.134;2022-11-20T02:07:59;-5.40;90.10
69747;DHT22;57018;50.278;19.134;2022-11-20T02:10:27;-5.30;90.10
69747;DHT22;57018;50.278;19.134;2022-11-20T02:12:54;-5.40;90.00
69747;DHT22;57018;50.278;19.134;2022-11-20T02:15:40;-5.50;89.90
69747;DHT22;57018;50.278;19.134;2022-11-20T02:18:07;-5.50;90.40
69747;DHT22;57018;50.278;19.134;2022-11-20T02:20:35;-5.60;90.40
69747;DHT22;57018;50.278;19.134;2022-11-20T02:23:05;-5.60;90.70
69747;DHT22;57018;50.278;19.134;2022-11-20T02:25:33;-5.70;91.10
69747;DHT22;57018;50.278;19.134;2022-11-20T02:28:00;-5.70;91.70
69747;DHT22;57018;50.278;19.134;2022-11-20T02:30:27;-5.60;91.70
69747;DHT22;57018;50.278;19.134;2022-11-20T02:32:53;-5.50;91.60
69747;DHT22;57018;50.278;19.134;2022-11-20T02:37:51;-5.40;90.70
69747;DHT22;57018;50.278;19.134;2022-11-20T02:40:18;-5.40;91.00
69747;DHT22;57018;50.278;19.134;2022-11-20T02:42:45;-5.40;90.90
69747;DHT22;57018;50.278;19.134;2022-11-20T02:45:11;-5.30;91.10
69747;DHT22;57018;50.278;19.134;2022-11-20T02:47:37;-5.40;90.80
69747;DHT22;57018;50.278;19.134;2022-11-20T02:50:04;-5.40;91.00
69747;DHT22;57018;50.278;19.134;2022-11-20T02:52:31;-5.30;90.40
69747;DHT22;57018;50.278;19.134;2022-11-20T02:54:57;-5.40;90.50
69747;DHT22;57018;50.278;19.134;2022-11-20T02:57:23;-5.40;90.30
69747;DHT22;57018;50.278;19.134;2022-11-20T02:59:49;-5.40;90.40
69747;DHT22;57018;50.278;19.134;2022-11-20T03:02:15;-5.30;90.40
69747;DHT22;57018;50.278;19.134;2022-11-20T03:04:41;-5.30;90.20
69747;DHT22;57018;50.278;19.134;2022-11-20T03:07:08;-5.40;90.40
69747;DHT22;57018;50.278;19.134;2022-11-20T03:09:35;-5.30;90.50
69747;DHT22;57018;50.278;19.134;2022-11-20T03:12:01;-5.40;90.40
69747;DHT22;57018;50.278;19.134;2022-11-20T03:14:27;-5.30;90.20
69747;DHT22;57018;50.278;19.134;2022-11-20T03:16:53;-5.40;90.50
69747;DHT22;57018;50.278;19.134;2022-11-20T03:19:20;-5.40;89.80
69747;DHT22;57018;50.278;19.134;2022-11-20T03:21:46;-5.40;89.80
69747;DHT22;57018;50.278;19.134;2022-11-20T03:24:12;-5.60;89.60
69747;DHT22;57018;50.278;19.134;2022-11-20T03:26:39;-5.70;90.20
69747;DHT22;57018;50.278;19.134;2022-11-20T03:29:05;-5.60;90.20
69747;DHT22;57018;50.278;19.134;2022-11-20T03:31:37;-5.60;90.20
69747;DHT22;57018;50.278;19.134;2022-11-20T03:34:06;-5.60;90.60
69747;DHT22;57018;50.278;19.134;2022-11-20T03:36:33;-5.50;89.80
69747;DHT22;57018;50.278;19.134;2022-11-20T03:39:00;-5.60;90.10
69747;DHT22;57018;50.278;19.134;2022-11-20T03:41:29;-5.70;90.00
69747;DHT22;57018;50.278;19.134;2022-11-20T03:44:01;-5.70;89.90
69747;DHT22;57018;50.278;19.134;2022-11-20T03:46:25;-5.80;90.10
69747;DHT22;57018;50.278;19.134;2022-11-20T03:48:52;-5.80;90.20
69747;DHT22;57018;50.278;19.134;2022-11-20T03:51:27;-5.80;90.40
69747;DHT22;57018;50.278;19.134;2022-11-20T03:53:56;-5.80;90.10
69747;DHT22;57018;50.278;19.134;2022-11-20T03:56:25;-5.80;90.00
69747;DHT22;57018;50.278;19.134;2022-11-20T03:58:51;-6.00;90.10
69747;DHT22;57018;50.278;19.134;2022-11-20T04:01:20;-5.90;90.80
69747;DHT22;57018;50.278;19.134;2022-11-20T04:03:47;-5.80;90.80
69747;DHT22;57018;50.278;19.134;2022-11-20T04:06:16;-5.80;90.40
69747;DHT22;57018;50.278;19.134;2022-11-20T04:08:42;-5.60;90.30
69747;DHT22;57018;50.278;19.134;2022-11-20T04:11:14;-5.60;90.30
69747;DHT22;57018;50.278;19.134;2022-11-20T04:13:41;-5.60;89.90
69747;DHT22;57018;50.278;19.134;2022-11-20T04:16:09;-5.60;89.70
69747;DHT22;57018;50.278;19.134;2022-11-20T04:18:36;-5.50;89.00
69747;DHT22;57018;50.278;19.134;2022-11-20T04:21:03;-5.60;89.10
69747;DHT22;57018;50.278;19.134;2022-11-20T04:23:30;-5.50;89.00
69747;DHT22;57018;50.278;19.134;2022-11-20T04:26:09;-5.50;89.10
69747;DHT22;57018;50.278;19.134;2022-11-20T04:28:32;-5.60;89.40
69747;DHT22;57018;50.278;19.134;2022-11-20T04:31:09;-5.70;90.00
69747;DHT22;57018;50.278;19.134;2022-11-20T04:33:36;-5.70;89.70
69747;DHT22;57018;50.278;19.134;2022-11-20T04:36:06;-5.70;89.70
69747;DHT22;57018;50.278;19.134;2022-11-20T04:38:32;-5.70;89.90
69747;DHT22;57018;50.278;19.134;2022-11-20T04:41:00;-5.60;89.60
69747;DHT22;57018;50.278;19.134;2022-11-20T04:43:27;-5.70;88.90
69747;DHT22;57018;50.278;19.134;2022-11-20T04:45:55;-5.70;89.00
69747;DHT22;57018;50.278;19.134;2022-11-20T04:48:22;-5.70;88.90
69747;DHT22;57018;50.278;19.134;2022-11-20T04:50:49;-5.80;88.50
69747;DHT22;57018;50.278;19.134;2022-11-20T04:53:16;-5.70;88.90
69747;DHT22;57018;50.278;19.134;2022-11-20T04:55:42;-5.70;88.90
69747;DHT22;57018;50.278;19.134;2022-11-20T04:58:08;-5.70;88.80
69747;DHT22;57018;50.278;19.134;2022-11-20T05:00:34;-5.70;88.50
69747;DHT22;57018;50.278;19.134;2022-11-20T05:03:00;-5.70;88.70
69747;DHT22;57018;50.278;19.134;2022-11-20T05:05:26;-5.70;88.20
69747;DHT22;57018;50.278;19.134;2022-11-20T05:07:52;-5.60;87.90
69747;DHT22;57018;50.278;19.134;2022-11-20T05:10:18;-5.70;87.60
69747;DHT22;57018;50.278;19.134;2022-11-20T05:12:44;-5.80;87.00
69747;DHT22;57018;50.278;19.134;2022-11-20T05:15:10;-5.80;87.50
69747;DHT22;57018;50.278;19.134;2022-11-20T05:17:36;-5.80;87.70
69747;DHT22;57018;50.278;19.134;2022-11-20T05:20:02;-5.80;87.10
69747;DHT22;57018;50.278;19.134;2022-11-20T05:22:28;-5.80;87.00
69747;DHT22;57018;50.278;19.134;2022-11-20T05:24:55;-5.80;87.10
69747;DHT22;57018;50.278;19.134;2022-11-20T05:27:20;-5.80;86.80
69747;DHT22;57018;50.278;19.134;2022-11-20T05:29:46;-6.10;88.00
69747;DHT22;57018;50.278;19.134;2022-11-20T05:32:13;-6.00;89.00
69747;DHT22;57018;50.278;19.134;2022-11-20T05:34:39;-6.00;88.80
69747;DHT22;57018;50.278;19.134;2022-11-20T05:37:04;-6.00;89.10
69747;DHT22;57018;50.278;19.134;2022-11-20T05:39:30;-5.90;89.10
69747;DHT22;57018;50.278;19.134;2022-11-20T05:41:57;-5.90;88.70
69747;DHT22;57018;50.278;19.134;2022-11-20T05:44:41;-5.80;88.40
69747;DHT22;57018;50.278;19.134;2022-11-20T05:47:07;-5.80;88.20
69747;DHT22;57018;50.278;19.134;2022-11-20T05:49:33;-5.90;88.50
69747;DHT22;57018;50.278;19.134;2022-11-20T05:51:59;-5.80;88.50
69747;DHT22;57018;50.278;19.134;2022-11-20T05:54:25;-5.80;88.60
69747;DHT22;57018;50.278;19.134;2022-11-20T05:56:51;-5.80;88.20
69747;DHT22;57018;50.278;19.134;2022-11-20T05:59:17;-5.80;88.80
69747;DHT22;57018;50.278;19.134;2022-11-20T06:01:44;-5.80;89.10
69747;DHT22;57018;50.278;19.134;2022-11-20T06:04:10;-5.80;88.80
69747;DHT22;57018;50.278;19.134;2022-11-20T06:06:36;-5.90;88.30
69747;DHT22;57018;50.278;19.134;2022-11-20T06:09:02;-5.80;88.60
69747;DHT22;57018;50.278;19.134;2022-11-20T06:11:28;-5.80;88.50
69747;DHT22;57018;50.278;19.134;2022-11-20T06:13:54;-5.70;88.70
69747;DHT22;57018;50.278;19.134;2022-11-20T06:16:20;-5.70;88.50
69747;DHT22;57018;50.278;19.134;2022-11-20T06:18:48;-5.60;88.20
69747;DHT22;57018;50.278;19.134;2022-11-20T06:21:17;-5.60;88.10
69747;DHT22;57018;50.278;19.134;2022-11-20T06:23:44;-5.50;88.30
69747;DHT22;57018;50.278;19.134;2022-11-20T06:26:13;-5.50;88.00
69747;DHT22;57018;50.278;19.134;2022-11-20T06:28:39;-5.50;88.00
69747;DHT22;57018;50.278;19.134;2022-11-20T06:31:07;-5.60;88.00
69747;DHT22;57018;50.278;19.134;2022-11-20T06:33:34;-5.50;88.30
69747;DHT22;57018;50.278;19.134;2022-11-20T06:36:01;-5.40;87.90
69747;DHT22;57018;50.278;19.134;2022-11-20T06:38:28;-5.30;87.90
69747;DHT22;57018;50.278;19.134;2022-11-20T06:40:54;-5.30;87.50
69747;DHT22;57018;50.278;19.134;2022-11-20T06:43:21;-5.30;87.60
69747;DHT22;57018;50.278;19.134;2022-11-20T06:45:55;-5.20;87.40
69747;DHT22;57018;50.278;19.134;2022-11-20T06:48:20;-5.10;87.00
69747;DHT22;57018;50.278;19.134;2022-11-20T06:50:46;-5.10;87.10
69747;DHT22;57018;50.278;19.134;2022-11-20T06:53:12;-5.10;86.40
69747;DHT22;57018;50.278;19.134;2022-11-20T06:55:43;-5.10;87.20
69747;DHT22;57018;50.278;19.134;2022-11-20T06:58:11;-5.00;86.90
69747;DHT22;57018;50.278;19.134;2022-11-20T07:00:37;-5.00;86.10
69747;DHT22;57018;50.278;19.134;2022-11-20T07:03:09;-5.00;86.00
69747;DHT22;57018;50.278;19.134;2022-11-20T07:05:35;-4.90;85.80
69747;DHT22;57018;50.278;19.134;2022-11-20T07:08:02;-4.90;86.10
69747;DHT22;57018;50.278;19.134;2022-11-20T07:10:29;-4.90;86.60
69747;DHT22;57018;50.278;19.134;2022-11-20T07:12:55;-4.90;87.10
69747;DHT22;57018;50.278;19.134;2022-11-20T07:15:23;-4.80;86.80
69747;DHT22;57018;50.278;19.134;2022-11-20T07:17:49;-4.70;87.10
69747;DHT22;57018;50.278;19.134;2022-11-20T07:20:15;-4.40;87.20
69747;DHT22;57018;50.278;19.134;2022-11-20T07:22:42;-4.40;87.40
69747;DHT22;57018;50.278;19.134;2022-11-20T07:25:09;-4.30;87.50
69747;DHT22;57018;50.278;19.134;2022-11-20T07:27:36;-4.10;87.80
69747;DHT22;57018;50.278;19.134;2022-11-20T07:30:04;-4.10;88.10
69747;DHT22;57018;50.278;19.134;2022-11-20T07:32:30;-4.10;88.00
69747;DHT22;57018;50.278;19.134;2022-11-20T07:34:56;-4.00;88.70
69747;DHT22;57018;50.278;19.134;2022-11-20T07:37:22;-3.90;88.50
69747;DHT22;57018;50.278;19.134;2022-11-20T07:39:49;-3.70;88.40
69747;DHT22;57018;50.278;19.134;2022-11-20T07:42:14;-3.60;88.20
69747;DHT22;57018;50.278;19.134;2022-11-20T07:44:40;-3.50;88.00
69747;DHT22;57018;50.278;19.134;2022-11-20T07:47:06;-3.40;88.30
69747;DHT22;57018;50.278;19.134;2022-11-20T07:49:33;-3.20;88.20
69747;DHT22;57018;50.278;19.134;2022-11-20T07:51:59;-3.10;87.90
69747;DHT22;57018;50.278;19.134;2022-11-20T07:54:25;-3.00;87.90
69747;DHT22;57018;50.278;19.134;2022-11-20T07:56:51;-2.80;87.50
69747;DHT22;57018;50.278;19.134;2022-11-20T07:59:17;-2.70;87.30
69747;DHT22;57018;50.278;19.134;2022-11-20T08:01:43;-2.50;87.00
69747;DHT22;57018;50.278;19.134;2022-11-20T08:04:10;-2.50;86.50
69747;DHT22;57018;50.278;19.134;2022-11-20T08:06:36;-2.40;86.20
69747;DHT22;57018;50.278;19.134;2022-11-20T08:09:03;-2.40;86.10
69747;DHT22;57018;50.278;19.134;2022-11-20T08:11:29;-2.30;85.50
69747;DHT22;57018;50.278;19.134;2022-11-20T08:14:13;-2.30;86.20
69747;DHT22;57018;50.278;19.134;2022-11-20T08:16:47;-2.20;85.60
69747;DHT22;57018;50.278;19.134;2022-11-20T08:19:15;-2.10;85.80
69747;DHT22;57018;50.278;19.134;2022-11-20T08:21:43;-2.10;85.60
69747;DHT22;57018;50.278;19.134;2022-11-20T08:24:10;-2.00;85.70
69747;DHT22;57018;50.278;19.134;2022-11-20T08:26:37;-1.90;85.60
69747;DHT22;57018;50.278;19.134;2022-11-20T08:29:04;-1.90;85.60
69747;DHT22;57018;50.278;19.134;2022-11-20T08:31:31;-1.90;85.50
69747;DHT22;57018;50.278;19.134;2022-11-20T08:33:58;-1.90;86.10
69747;DHT22;57018;50.278;19.134;2022-11-20T08:36:24;-1.80;86.30
69747;DHT22;57018;50.278;19.134;2022-11-20T08:38:53;-1.50;86.80
69747;DHT22;57018;50.278;19.134;2022-11-20T08:41:20;-1.20;86.30
69747;DHT22;57018;50.278;19.134;2022-11-20T08:43:50;-0.90;85.70
69747;DHT22;57018;50.278;19.134;2022-11-20T08:46:16;-0.70;83.80
69747;DHT22;57018;50.278;19.134;2022-11-20T08:48:43;-0.30;84.30
69747;DHT22;57018;50.278;19.134;2022-11-20T08:51:11;0.00;83.70
69747;DHT22;57018;50.278;19.134;2022-11-20T08:53:38;0.10;83.20
69747;DHT22;57018;50.278;19.134;2022-11-20T08:56:05;0.30;82.90
69747;DHT22;57018;50.278;19.134;2022-11-20T08:58:31;0.40;82.50
69747;DHT22;57018;50.278;19.134;2022-11-20T09:00:57;0.40;81.90
69747;DHT22;57018;50.278;19.134;2022-11-20T09:03:23;0.40;81.00
69747;DHT22;57018;50.278;19.134;2022-11-20T09:05:49;0.50;81.80
69747;DHT22;57018;50.278;19.134;2022-11-20T09:08:16;0.60;82.00
69747;DHT22;57018;50.278;19.134;2022-11-20T09:10:42;0.80;81.80
69747;DHT22;57018;50.278;19.134;2022-11-20T09:13:08;0.70;82.00
69747;DHT22;57018;50.278;19.134;2022-11-20T09:15:34;0.80;81.80
69747;DHT22;57018;50.278;19.134;2022-11-20T09:18:02;1.00;81.40
69747;DHT22;57018;50.278;19.134;2022-11-20T09:20:30;1.10;81.50
69747;DHT22;57018;50.278;19.134;2022-11-20T09:22:57;1.20;81.90
69747;DHT22;57018;50.278;19.134;2022-11-20T09:25:23;1.30;81.30
69747;DHT22;57018;50.278;19.134;2022-11-20T09:27:59;1.60;81.30
69747;DHT22;57018;50.278;19.134;2022-11-20T09:30:26;1.60;81.30
69747;DHT22;57018;50.278;19.134;2022-11-20T09:32:53;1.90;80.40
69747;DHT22;57018;50.278;19.134;2022-11-20T09:35:19;2.00;79.90
69747;DHT22;57018;50.278;19.134;2022-11-20T09:37:45;2.50;79.60
69747;DHT22;57018;50.278;19.134;2022-11-20T09:40:22;2.40;79.60
69747;DHT22;57018;50.278;19.134;2022-11-20T09:56:33;3.10;76.60
69747;DHT22;57018;50.278;19.134;2022-11-20T09:59:02;3.10;77.60
69747;DHT22;57018;50.278;19.134;2022-11-20T10:01:32;3.30;77.50
69747;DHT22;57018;50.278;19.134;2022-11-20T10:12:31;3.60;76.60
69747;DHT22;57018;50.278;19.134;2022-11-20T10:14:59;3.80;76.20
69747;DHT22;57018;50.278;19.134;2022-11-20T10:20:20;3.80;75.60
69747;DHT22;57018;50.278;19.134;2022-11-20T10:22:53;3.90;74.80
69747;DHT22;57018;50.278;19.134;2022-11-20T10:25:18;3.90;74.70
69747;DHT22;57018;50.278;19.134;2022-11-20T10:30:20;3.60;74.50
69747;DHT22;57018;50.278;19.134;2022-11-20T10:33:03;3.70;74.20
69747;DHT22;57018;50.278;19.134;2022-11-20T10:35:38;4.00;74.70
69747;DHT22;57018;50.278;19.134;2022-11-20T10:38:08;4.00;73.70
69747;DHT22;57018;50.278;19.134;2022-11-20T10:40:38;4.10;73.00
69747;DHT22;57018;50.278;19.134;2022-11-20T10:43:15;4.20;73.10
69747;DHT22;57018;50.278;19.134;2022-11-20T10:45:50;4.00;73.20
69747;DHT22;57018;50.278;19.134;2022-11-20T10:48:22;4.30;73.00
69747;DHT22;57018;50.278;19.134;2022-11-20T10:53:48;4.10;73.40
69747;DHT22;57018;50.278;19.134;2022-11-20T10:56:31;4.20;73.20
69747;DHT22;57018;50.278;19.134;2022-11-20T10:59:19;4.10;73.40
69747;DHT22;57018;50.278;19.134;2022-11-20T11:01:41;4.20;73.50
69747;DHT22;57018;50.278;19.134;2022-11-20T11:07:11;4.00;74.30
69747;DHT22;57018;50.278;19.134;2022-11-20T11:09:38;3.90;75.00
69747;DHT22;57018;50.278;19.134;2022-11-20T11:12:08;4.00;74.70
69747;DHT22;57018;50.278;19.134;2022-11-20T11:14:51;4.10;74.60
69747;DHT22;57018;50.278;19.134;2022-11-20T11:17:25;4.00;74.60
69747;DHT22;57018;50.278;19.134;2022-11-20T11:20:16;4.30;74.50
69747;DHT22;57018;50.278;19.134;2022-11-20T11:22:49;4.10;74.80
69747;DHT22;57018;50.278;19.134;2022-11-20T11:25:29;4.10;74.20
69747;DHT22;57018;50.278;19.134;2022-11-20T11:28:00;4.10;74.00
69747;DHT22;57018;50.278;19.134;2022-11-20T11:30:28;4.10;74.50
69747;DHT22;57018;50.278;19.134;2022-11-20T11:33:18;4.20;74.10
69747;DHT22;57018;50.278;19.134;2022-11-20T11:35:54;4.20;73.90
69747;DHT22;57018;50.278;19.134;2022-11-20T11:38:28;4.00;73.90
69747;DHT22;57018;50.278;19.134;2022-11-20T11:40:56;3.90;75.00
69747;DHT22;57018;50.278;19.134;2022-11-20T11:43:26;3.60;76.00
69747;DHT22;57018;50.278;19.134;2022-11-20T11:46:24;3.70;76.30
69747;DHT22;57018;50.278;19.134;2022-11-20T11:49:01;3.60;76.30
69747;DHT22;57018;50.278;19.134;2022-11-20T11:51:34;3.70;76.20
69747;DHT22;57018;50.278;19.134;2022-11-20T11:54:03;3.50;75.20
69747;DHT22;57018;50.278;19.134;2022-11-20T11:56:32;3.70;74.80
69747;DHT22;57018;50.278;19.134;2022-11-20T11:59:00;3.60;74.30
69747;DHT22;57018;50.278;19.134;2022-11-20T12:02:12;3.70;74.00
69747;DHT22;57018;50.278;19.134;2022-11-20T12:04:54;3.70;74.00
69747;DHT22;57018;50.278;19.134;2022-11-20T12:06:58;3.70;72.80
69747;DHT22;57018;50.278;19.134;2022-11-20T12:09:28;3.40;73.30
69747;DHT22;57018;50.278;19.134;2022-11-20T12:14:35;3.00;74.00
69747;DHT22;57018;50.278;19.134;2022-11-20T12:17:02;2.90;74.50
69747;DHT22;57018;50.278;19.134;2022-11-20T12:19:30;3.10;74.80
69747;DHT22;57018;50.278;19.134;2022-11-20T12:25:10;3.40;73.10
69747;DHT22;57018;50.278;19.134;2022-11-20T12:30:22;3.60;72.60
69747;DHT22;57018;50.278;19.134;2022-11-20T12:43:57;4.10;71.40
69747;DHT22;57018;50.278;19.134;2022-11-20T12:46:44;3.90;71.30
69747;DHT22;57018;50.278;19.134;2022-11-20T13:08:01;3.00;74.40
69747;DHT22;57018;50.278;19.134;2022-11-20T13:10:43;2.60;75.00
69747;DHT22;57018;50.278;19.134;2022-11-20T13:15:51;2.40;76.10
69747;DHT22;57018;50.278;19.134;2022-11-20T13:18:18;2.40;76.80
69747;DHT22;57018;50.278;19.134;2022-11-20T13:20:45;2.20;77.20
69747;DHT22;57018;50.278;19.134;2022-11-20T13:23:25;2.00;77.40
69747;DHT22;57018;50.278;19.134;2022-11-20T13:26:03;1.90;77.90
69747;DHT22;57018;50.278;19.134;2022-11-20T13:28:30;2.30;77.90
69747;DHT22;57018;50.278;19.134;2022-11-20T13:30:58;2.10;78.00
69747;DHT22;57018;50.278;19.134;2022-11-20T13:33:32;2.10;78.30
69747;DHT22;57018;50.278;19.134;2022-11-20T13:36:20;1.90;78.60
69747;DHT22;57018;50.278;19.134;2022-11-20T13:38:47;1.90;78.80
69747;DHT22;57018;50.278;19.134;2022-11-20T13:41:30;1.90;78.90
69747;DHT22;57018;50.278;19.134;2022-11-20T13:46:53;1.80;79.40
69747;DHT22;57018;50.278;19.134;2022-11-20T13:49:39;1.50;80.00
69747;DHT22;57018;50.278;19.134;2022-11-20T13:58:03;1.20;80.70
69747;DHT22;57018;50.278;19.134;2022-11-20T14:00:27;1.20;81.00
69747;DHT22;57018;50.278;19.134;2022-11-20T14:05:39;1.10;82.00
69747;DHT22;57018;50.278;19.134;2022-11-20T14:08:14;0.90;82.40
69747;DHT22;57018;50.278;19.134;2022-11-20T14:10:38;0.90;82.40
69747;DHT22;57018;50.278;19.134;2022-11-20T14:13:17;0.80;82.60
69747;DHT22;57018;50.278;19.134;2022-11-20T14:15:43;0.90;83.00
69747;DHT22;57018;50.278;19.134;2022-11-20T14:18:20;0.80;83.30
69747;DHT22;57018;50.278;19.134;2022-11-20T14:20:49;0.80;83.40
69747;DHT22;57018;50.278;19.134;2022-11-20T14:23:25;0.80;83.40
69747;DHT22;57018;50.278;19.134;2022-11-20T14:25:51;1.00;83.60
69747;DHT22;57018;50.278;19.134;2022-11-20T14:28:26;0.90;83.50
69747;DHT22;57018;50.278;19.134;2022-11-20T14:30:53;1.00;83.50
69747;DHT22;57018;50.278;19.134;2022-11-20T14:33:20;1.00;83.40
69747;DHT22;57018;50.278;19.134;2022-11-20T14:35:50;1.20;83.20
69747;DHT22;57018;50.278;19.134;2022-11-20T14:38:19;1.40;83.10
69747;DHT22;57018;50.278;19.134;2022-11-20T14:40:46;1.40;83.20
69747;DHT22;57018;50.278;19.134;2022-11-20T14:43:23;1.60;82.80
69747;DHT22;57018;50.278;19.134;2022-11-20T14:46:08;1.50;82.80
69747;DHT22;57018;50.278;19.134;2022-11-20T14:48:49;1.60;82.50
69747;DHT22;57018;50.278;19.134;2022-11-20T14:51:36;1.80;82.40
69747;DHT22;57018;50.278;19.134;2022-11-20T14:54:16;1.70;82.10
69747;DHT22;57018;50.278;19.134;2022-11-20T14:56:39;1.70;82.20
69747;DHT22;57018;50.278;19.134;2022-11-20T14:59:06;1.70;82.10
69747;DHT22;57018;50.278;19.134;2022-11-20T15:01:34;1.90;82.10
69747;DHT22;57018;50.278;19.134;2022-11-20T15:04:05;1.70;82.10
69747;DHT22;57018;50.278;19.134;2022-11-20T15:06:30;1.70;82.10
69747;DHT22;57018;50.278;19.134;2022-11-20T15:08:57;1.90;82.10
69747;DHT22;57018;50.278;19.134;2022-11-20T15:11:27;1.90;82.10
69747;DHT22;57018;50.278;19.134;2022-11-20T15:13:53;2.00;82.10
69747;DHT22;57018;50.278;19.134;2022-11-20T15:16:21;1.80;81.80
69747;DHT22;57018;50.278;19.134;2022-11-20T15:18:47;2.00;82.10
69747;DHT22;57018;50.278;19.134;2022-11-20T15:21:16;2.00;82.00
69747;DHT22;57018;50.278;19.134;2022-11-20T15:23:43;2.10;81.80
69747;DHT22;57018;50.278;19.134;2022-11-20T15:26:11;1.90;81.90
69747;DHT22;57018;50.278;19.134;2022-11-20T15:28:40;1.90;82.10
69747;DHT22;57018;50.278;19.134;2022-11-20T15:31:11;2.00;81.90
69747;DHT22;57018;50.278;19.134;2022-11-20T15:33:37;2.20;81.80
69747;DHT22;57018;50.278;19.134;2022-11-20T15:36:03;2.10;81.80
69747;DHT22;57018;50.278;19.134;2022-11-20T15:38:30;2.10;81.80
69747;DHT22;57018;50.278;19.134;2022-11-20T15:40:56;2.40;81.70
69747;DHT22;57018;50.278;19.134;2022-11-20T15:43:22;2.40;81.50
69747;DHT22;57018;50.278;19.134;2022-11-20T15:46:00;2.10;81.50
69747;DHT22;57018;50.278;19.134;2022-11-20T15:51:31;2.20;81.70
69747;DHT22;57018;50.278;19.134;2022-11-20T15:53:43;2.20;81.50
69747;DHT22;57018;50.278;19.134;2022-11-20T15:56:12;2.30;81.30
69747;DHT22;57018;50.278;19.134;2022-11-20T15:58:39;2.50;81.50
69747;DHT22;57018;50.278;19.134;2022-11-20T16:01:11;2.40;81.20
69747;DHT22;57018;50.278;19.134;2022-11-20T16:03:35;2.50;81.40
69747;DHT22;57018;50.278;19.134;2022-11-20T16:06:01;2.40;81.50
69747;DHT22;57018;50.278;19.134;2022-11-20T16:08:28;2.30;81.70
69747;DHT22;57018;50.278;19.134;2022-11-20T16:10:54;2.50;81.60
69747;DHT22;57018;50.278;19.134;2022-11-20T16:13:20;2.60;81.70
69747;DHT22;57018;50.278;19.134;2022-11-20T16:16:07;2.40;81.60
69747;DHT22;57018;50.278;19.134;2022-11-20T16:18:35;2.50;81.50
69747;DHT22;57018;50.278;19.134;2022-11-20T16:21:02;2.60;81.60
69747;DHT22;57018;50.278;19.134;2022-11-20T16:23:28;2.50;81.60
69747;DHT22;57018;50.278;19.134;2022-11-20T16:25:54;2.50;81.80
69747;DHT22;57018;50.278;19.134;2022-11-20T16:28:21;2.60;81.60
69747;DHT22;57018;50.278;19.134;2022-11-20T16:30:47;2.50;81.50
69747;DHT22;57018;50.278;19.134;2022-11-20T16:33:17;2.70;81.70
69747;DHT22;57018;50.278;19.134;2022-11-20T16:35:43;2.50;81.80
69747;DHT22;57018;50.278;19.134;2022-11-20T16:38:09;2.50;81.90
69747;DHT22;57018;50.278;19.134;2022-11-20T16:40:36;2.50;81.90
69747;DHT22;57018;50.278;19.134;2022-11-20T16:43:12;2.60;82.20
69747;DHT22;57018;50.278;19.134;2022-11-20T16:45:40;2.60;82.20
69747;DHT22;57018;50.278;19.134;2022-11-20T16:48:12;2.50;82.20
69747;DHT22;57018;50.278;19.134;2022-11-20T16:50:47;2.50;82.40
69747;DHT22;57018;50.278;19.134;2022-11-20T16:53:14;2.60;82.10
69747;DHT22;57018;50.278;19.134;2022-11-20T16:55:40;2.50;82.10
69747;DHT22;57018;50.278;19.134;2022-11-20T16:58:06;2.60;82.30
69747;DHT22;57018;50.278;19.134;2022-11-20T17:00:37;2.40;82.50
69747;DHT22;57018;50.278;19.134;2022-11-20T17:03:07;2.40;82.70
69747;DHT22;57018;50.278;19.134;2022-11-20T17:05:34;2.20;82.80
69747;DHT22;57018;50.278;19.134;2022-11-20T17:08:00;2.30;83.00
69747;DHT22;57018;50.278;19.134;2022-11-20T17:10:26;2.30;83.50